Sugar Grove, Ohio
Current Conditions -  °F | °C
As of 2:53 PM on Saturday 25 Oct 2014 (Local Time) from KLHQ Reporting Station
Scattered Clouds Scattered Clouds  
Wind Chill: 68°   Ceiling: Unl
Heat Index: 68°   Visibility: 10mi
Dew Point: 55°   Wind: 14mph
Humidity: 63%   Direction: 240°WSW
Pressure: 29.87"   Gusts: 22mph
Location:  39.63°N, 82.55°W
Report Text: KLHQ 251853Z AUTO 24012G19KT 10SM SCT027 20/13 A2987 RMK AO2 SLP115 T02000128
Loading
Personal Weather Stations






























Interactive Weather Map
Tropical Storm Tracking
New forecast layout! Learn more

10-Day Weather Forecast

Advertisements
Track Severe Weather on mobile